Airfield :
LOGIN :

Register | Disclaimer

   EN    FR    IT 

 










Legend :    VFR   Marginal VFR   IFR   Intensive IFR   Very Intensive IFR
Visi :
Ceiling :
>= 8 km
>= 3000ft
5 to 8 km
1000 to 3000 ft
1500m to 5 km
500 to 1000 ft
800 to 1500m
200 to 500 ft
< 800m
< 200 ft
Symbols :   Thunderstorms  Fog  Heavy snow  Heavy precipitations  Wind > 20 kt
SIGMETs :     Misc.  Thunderstorms  Icing  Turbulence  Mountain Waves  Volcanic Ashes






- Airport Elevation : 218 ft
- IATA code : LBG


LFPB - Paris / Le Bourget

CURRENT METAR :
  • 241500Z AUTO 17012KT 9999 BKN022 BKN032 BKN042 16/13 Q1000 TEMPO 26020G40KT 2000 TSRAGS BKN012 BKN016CB

EXPIRED METARs :
  • 241430Z AUTO 19011KT 9999 SCT020/// BKN026/// BKN043/// ///TCU 16/13 Q1000 TEMPO 26020G40KT 2000 TSRAGS BKN012 BKN016CB
  • 241400Z AUTO 19015KT 9999 BKN022/// BKN027/// BKN074/// ///TCU 17/12 Q1001 TEMPO 26020G40KT 2000 TSRAGS BKN012 BKN016CB
  • 241330Z AUTO 19013KT 9999 FEW037/// SCT078/// OVC094/// ///TCU 17/13 Q1001 TEMPO 26020G40KT 2000 TSRAGS BKN012 BKN016CB
  • 241300Z AUTO 20012KT 9999 FEW023/// BKN068/// OVC080/// ///CB 16/13 Q1002 TEMPO 26020G40KT 2000 TSRAGS BKN012 BKN016CB
  • 241230Z AUTO 20013KT 9999 -RA FEW031/// SCT062/// OVC082/// ///CB 15/13 Q1002 TEMPO 26020G40KT 2000 TSRAGS BKN012 BKN016CB

TAF TAF LFPB
Valid from the 24 at 12:00 until the 25 at 12:00 UTC


241100Z 2412/2512 20017G30KT 9999 BKN020 BKN070
TEMPO 2412/2420 4000 SHRA BKN020CB
PROB30
TEMPO 2413/2419 26020G40KT 2000 TSRAGS BKN012 BKN016CB
BECMG 2419/2421 23012KT
TEMPO 2505/2508 20015G25KT 4000 RA BKN012 SCT014TCU
BECMG 2508/2510 31020G30KT
TEMPO 2508/2512 4000 SHRA BKN012 BKN020CB
PROB30
TEMPO 2510/2512 2000 TSRA
ATIS : +33 1 48 62 43 92



MET'MAP, your aeronautical weather chart ! - Copyright ORBIFLY December 2007 - Disclaimer

ORBIFLY MET'MAP TEAM :

Programming & Development : Alexandra Zaïnal
Concept & original design : Baudouin d'Aumeries
Assistance for programming : Marc-Olivier Méhu
Technical & hardware support : Manuel Goepfert

Contact : metmap@orbifly.com




SOURCES & CREDITS :

   NOAA